createdAt,value
2019-05-12T00:01:58.905Z,15.57
2019-05-12T00:04:28.586Z,15.67
2019-05-12T00:06:58.614Z,20.30
2019-05-12T00:09:28.562Z,16.83
2019-05-12T00:11:59.132Z,13.10
2019-05-12T00:14:28.897Z,15.60
2019-05-12T00:16:58.632Z,22.13
2019-05-12T00:19:28.646Z,15.97
2019-05-12T00:21:58.824Z,17.03
2019-05-12T00:24:28.814Z,15.90
2019-05-12T00:27:01.117Z,14.43
2019-05-12T00:29:30.717Z,17.17
2019-05-12T00:32:00.407Z,16.47
2019-05-12T00:34:29.979Z,17.33
2019-05-12T00:36:59.638Z,12.60
2019-05-12T00:39:29.210Z,15.97
2019-05-12T00:41:58.859Z,21.43
2019-05-12T00:44:28.604Z,15.43
2019-05-12T00:46:58.189Z,15.90
2019-05-12T00:49:28.980Z,17.00
2019-05-12T00:51:58.846Z,18.93
2019-05-12T00:54:28.665Z,18.73
2019-05-12T00:56:58.577Z,14.53
2019-05-12T00:59:28.297Z,19.20
2019-05-12T01:01:58.621Z,17.20
2019-05-12T01:04:29.113Z,18.80
2019-05-12T01:06:59.105Z,15.90
2019-05-12T01:09:28.717Z,18.10
2019-05-12T01:11:58.947Z,16.17
2019-05-12T01:14:28.885Z,22.00
2019-05-12T01:16:58.516Z,22.90
2019-05-12T01:19:28.833Z,22.53
2019-05-12T01:21:58.888Z,19.93
2019-05-12T01:24:28.492Z,19.40
2019-05-12T01:26:58.333Z,27.73
2019-05-12T01:29:28.294Z,27.10
2019-05-12T01:32:03.950Z,24.70
2019-05-12T01:34:33.587Z,17.30
2019-05-12T01:37:24.708Z,19.80
2019-05-12T01:39:54.897Z,26.33
2019-05-12T01:42:24.525Z,29.73
2019-05-12T01:44:54.104Z,26.20
2019-05-12T01:47:23.789Z,22.57
2019-05-12T01:49:53.381Z,25.70
2019-05-12T01:52:22.937Z,24.93
2019-05-12T01:54:52.477Z,26.33
2019-05-12T01:57:22.146Z,26.80
2019-05-12T01:59:51.852Z,20.60
2019-05-12T02:02:21.517Z,22.00
2019-05-12T02:05:08.847Z,27.27
2019-05-12T02:07:48.710Z,27.87
2019-05-12T02:10:18.745Z,18.67
2019-05-12T02:12:49.055Z,22.87
2019-05-12T02:15:19.699Z,24.40
2019-05-12T02:17:49.314Z,28.70
2019-05-12T02:20:19.905Z,27.33
2019-05-12T02:22:49.646Z,26.60
2019-05-12T02:25:19.373Z,33.63
2019-05-12T02:27:48.936Z,26.63
2019-05-12T02:30:20.272Z,29.83
2019-05-12T02:32:57.318Z,30.27
2019-05-12T02:35:24.541Z,27.20
2019-05-12T02:37:54.987Z,23.90
2019-05-12T02:40:25.203Z,32.90
2019-05-12T02:42:55.428Z,30.47
2019-05-12T02:45:25.810Z,36.07
2019-05-12T02:47:55.667Z,27.00
2019-05-12T02:50:36.381Z,29.93
2019-05-12T02:53:07.001Z,32.20
2019-05-12T02:55:37.317Z,34.50
2019-05-12T02:58:07.038Z,30.23
2019-05-12T03:00:37.169Z,37.10
2019-05-12T03:03:09.123Z,29.33
2019-05-12T03:05:40.822Z,37.30
2019-05-12T03:08:11.259Z,36.10
2019-05-12T03:10:40.901Z,31.53
2019-05-12T03:13:10.483Z,26.00
2019-05-12T03:15:40.039Z,28.77
2019-05-12T03:18:09.799Z,31.67
2019-05-12T03:20:39.426Z,33.43
2019-05-12T03:23:09.021Z,25.83
2019-05-12T03:25:38.587Z,29.30
2019-05-12T03:28:09.454Z,31.20
2019-05-12T03:30:40.945Z,27.43
2019-05-12T03:33:13.817Z,32.10
2019-05-12T03:35:51.421Z,34.07
2019-05-12T03:38:14.843Z,28.70
2019-05-12T03:40:45.372Z,31.43
2019-05-12T03:43:15.406Z,31.63
2019-05-12T03:45:45.554Z,28.03
2019-05-12T03:48:15.460Z,30.27
2019-05-12T03:50:46.050Z,30.93
2019-05-12T03:53:16.386Z,32.93
2019-05-12T03:55:47.132Z,29.70
2019-05-12T03:58:17.243Z,28.70
2019-05-12T04:00:46.839Z,31.87
2019-05-12T04:03:16.465Z,39.73
2019-05-12T04:05:46.161Z,34.17
2019-05-12T04:08:16.200Z,29.17
2019-05-12T04:10:46.198Z,28.53
2019-05-12T04:13:16.066Z,29.23
2019-05-12T04:15:46.129Z,29.90
2019-05-12T04:18:16.665Z,27.57
2019-05-12T04:20:46.496Z,29.63
2019-05-12T04:23:24.535Z,28.37
2019-05-12T04:26:06.562Z,26.73
2019-05-12T04:28:24.657Z,29.67
2019-05-12T04:30:54.634Z,25.33
2019-05-12T04:33:25.668Z,29.30
2019-05-12T04:35:55.715Z,28.87
2019-05-12T04:38:25.495Z,25.93
2019-05-12T04:40:55.634Z,25.43
2019-05-12T04:43:25.730Z,33.50
2019-05-12T04:45:55.549Z,29.70
2019-05-12T04:48:26.030Z,28.33
2019-05-12T04:50:56.276Z,29.63
2019-05-12T04:53:26.006Z,27.70
2019-05-12T04:56:07.365Z,25.33
2019-05-12T04:58:26.931Z,27.47
2019-05-12T05:00:56.694Z,27.83
2019-05-12T05:03:26.323Z,31.33
2019-05-12T05:05:55.995Z,25.40
2019-05-12T05:08:25.857Z,24.33
2019-05-12T05:10:55.407Z,25.67
2019-05-12T05:13:25.602Z,31.30
2019-05-12T05:15:55.131Z,27.90
2019-05-12T05:18:24.996Z,30.23
2019-05-12T05:20:54.578Z,33.07
2019-05-12T05:23:24.367Z,28.07
2019-05-12T05:25:54.035Z,29.57
2019-05-12T05:28:23.750Z,20.73
2019-05-12T05:30:53.522Z,19.97
2019-05-12T05:33:23.961Z,26.13
2019-05-12T05:35:54.285Z,23.80
2019-05-12T05:38:24.187Z,18.10
2019-05-12T05:40:54.232Z,22.27
2019-05-12T05:43:24.346Z,16.90
2019-05-12T05:46:02.103Z,26.40
2019-05-12T05:48:25.321Z,22.83
2019-05-12T05:50:54.909Z,26.63
2019-05-12T05:53:24.608Z,21.60
2019-05-12T05:55:56.268Z,21.23
2019-05-12T05:58:26.293Z,20.20
2019-05-12T06:01:03.100Z,23.70
2019-05-12T06:03:28.077Z,19.40
2019-05-12T06:06:01.426Z,17.40
2019-05-12T06:08:29.196Z,16.33
2019-05-12T06:10:58.808Z,17.77
2019-05-12T06:13:31.766Z,17.73
2019-05-12T06:15:59.763Z,14.93
2019-05-12T06:18:29.953Z,18.10
2019-05-12T06:20:59.666Z,15.60
2019-05-12T06:23:34.021Z,15.53
2019-05-12T06:26:00.658Z,25.13
2019-05-12T06:28:31.196Z,17.40
2019-05-12T06:31:01.566Z,12.40
2019-05-12T06:33:35.514Z,11.93
2019-05-12T06:36:03.775Z,11.10
2019-05-12T06:38:37.194Z,17.30
2019-05-12T06:41:05.231Z,14.33
2019-05-12T06:43:38.625Z,12.40
2019-05-12T06:46:06.283Z,11.07
2019-05-12T06:48:35.948Z,18.30
2019-05-12T06:51:09.154Z,26.30
2019-05-12T06:53:36.980Z,19.10
2019-05-12T06:56:09.452Z,16.47
2019-05-12T06:58:38.028Z,10.77
2019-05-12T07:01:11.013Z,18.50
2019-05-12T07:03:39.000Z,12.10
2019-05-12T07:06:09.247Z,15.97
2019-05-12T07:08:39.921Z,16.70
2019-05-12T07:11:09.671Z,12.13
2019-05-12T07:13:39.330Z,17.17
2019-05-12T07:16:22.024Z,13.67
2019-05-12T07:18:48.683Z,15.70
2019-05-12T07:21:21.021Z,13.03
2019-05-12T07:23:49.710Z,14.50
2019-05-12T07:26:19.763Z,18.27
2019-05-12T07:28:49.467Z,12.53
2019-05-12T07:31:19.417Z,16.10
2019-05-12T07:33:49.068Z,12.80
2019-05-12T07:36:19.960Z,16.70
2019-05-12T07:38:55.815Z,14.20
2019-05-12T07:41:24.248Z,13.67
2019-05-12T07:44:00.681Z,17.33
2019-05-12T07:46:28.328Z,12.83
2019-05-12T07:48:58.215Z,11.13
2019-05-12T07:51:30.434Z,10.83
2019-05-12T07:53:59.617Z,16.73
2019-05-12T07:56:32.894Z,12.80
2019-05-12T07:59:01.256Z,13.77
2019-05-12T08:01:35.923Z,12.27
2019-05-12T08:04:04.528Z,14.40
2019-05-12T08:06:41.621Z,12.93
2019-05-12T08:09:07.995Z,13.47
2019-05-12T08:11:39.771Z,11.73
2019-05-12T08:14:13.843Z,19.80
2019-05-12T08:16:40.884Z,18.73
2019-05-12T08:19:15.025Z,10.97
2019-05-12T08:22:00.565Z,14.10
2019-05-12T08:24:34.598Z,13.10
2019-05-12T08:27:03.821Z,10.50
2019-05-12T08:29:34.157Z,10.07
2019-05-12T08:32:03.758Z,8.17
2019-05-12T08:34:34.065Z,9.67
2019-05-12T08:37:04.409Z,7.57
2019-05-12T08:39:34.358Z,11.77
2019-05-12T08:42:04.139Z,14.80
2019-05-12T08:44:40.160Z,13.23
2019-05-12T08:47:04.592Z,9.57
2019-05-12T08:49:49.186Z,9.50
2019-05-12T08:52:05.201Z,9.73
2019-05-12T08:54:39.755Z,11.63
2019-05-12T08:57:07.113Z,8.97
2019-05-12T08:59:38.434Z,9.30
2019-05-12T09:02:10.739Z,11.17
2019-05-12T09:04:43.083Z,10.03
2019-05-12T09:07:09.806Z,7.00
2019-05-12T09:09:39.156Z,8.40
2019-05-12T09:12:08.394Z,10.40
2019-05-12T09:14:56.994Z,9.60
2019-05-12T09:17:26.684Z,11.73
2019-05-12T09:20:06.079Z,6.47
2019-05-12T09:22:30.695Z,6.77
2019-05-12T09:25:06.131Z,17.73
2019-05-12T09:27:33.475Z,6.23
2019-05-12T09:30:07.646Z,7.30
2019-05-12T09:32:39.015Z,6.67
2019-05-12T09:35:05.915Z,8.87
2019-05-12T09:37:38.646Z,7.13
2019-05-12T09:40:07.049Z,5.23
2019-05-12T09:42:36.673Z,11.40
2019-05-12T09:45:10.251Z,8.33
2019-05-12T09:47:37.771Z,11.80
2019-05-12T09:50:09.851Z,5.90
2019-05-12T09:52:38.801Z,6.50
2019-05-12T09:55:08.508Z,9.03
2019-05-12T09:57:40.605Z,5.70
2019-05-12T10:00:09.647Z,9.03
2019-05-12T10:02:39.215Z,7.20
2019-05-12T10:05:08.980Z,7.20
2019-05-12T10:07:38.719Z,9.57
2019-05-12T10:10:08.947Z,9.53
2019-05-12T10:12:46.412Z,5.70
2019-05-12T10:15:13.569Z,7.90
2019-05-12T10:17:43.490Z,11.30
2019-05-12T10:20:13.781Z,7.90
2019-05-12T10:22:43.908Z,7.50
2019-05-12T10:25:14.405Z,9.87
2019-05-12T10:27:44.473Z,8.70
2019-05-12T10:30:17.227Z,5.17
2019-05-12T10:32:45.869Z,12.33
2019-05-12T10:35:21.070Z,7.07
2019-05-12T10:37:47.452Z,6.50
2019-05-12T10:40:17.191Z,11.67
2019-05-12T10:42:49.471Z,9.63
2019-05-12T10:45:20.721Z,9.40
2019-05-12T10:47:50.472Z,8.73
2019-05-12T10:50:20.088Z,6.63
2019-05-12T10:52:49.934Z,10.37
2019-05-12T10:55:19.583Z,8.20
2019-05-12T10:57:58.442Z,5.40
2019-05-12T11:00:25.144Z,6.70
2019-05-12T11:02:53.518Z,7.57
2019-05-12T11:05:26.071Z,7.47
2019-05-12T11:07:54.961Z,6.40
2019-05-12T11:10:24.584Z,5.90
2019-05-12T11:12:58.980Z,9.07
2019-05-12T11:15:25.728Z,5.43
2019-05-12T11:18:10.348Z,6.17
2019-05-12T11:20:40.040Z,11.37
2019-05-12T11:23:09.837Z,7.07
2019-05-12T11:25:39.664Z,4.97
2019-05-12T11:28:09.294Z,5.43
2019-05-12T11:30:39.169Z,8.93
2019-05-12T11:33:08.823Z,9.43
2019-05-12T11:35:38.562Z,12.47
2019-05-12T11:38:08.275Z,4.90
2019-05-12T11:40:44.821Z,7.37
2019-05-12T11:43:14.835Z,9.63
2019-05-12T11:45:44.453Z,8.67
2019-05-12T11:48:23.355Z,6.10
2019-05-12T11:50:54.940Z,8.57
2019-05-12T11:53:30.998Z,7.03
2019-05-12T11:55:55.888Z,10.67
2019-05-12T11:58:25.719Z,8.10
2019-05-12T12:01:06.430Z,9.10
2019-05-12T12:03:33.651Z,8.37
2019-05-12T12:06:03.396Z,8.37
2019-05-12T12:08:37.067Z,7.27
2019-05-12T12:11:04.421Z,5.20
2019-05-12T12:13:34.186Z,7.83
2019-05-12T12:16:07.088Z,6.70
2019-05-12T12:18:35.247Z,4.43
2019-05-12T12:21:07.527Z,5.03
2019-05-12T12:23:40.972Z,8.67
2019-05-12T12:26:07.810Z,6.60
2019-05-12T12:28:46.374Z,8.23
2019-05-12T12:31:15.950Z,5.13
2019-05-12T12:33:47.153Z,7.30
2019-05-12T12:36:16.907Z,8.97
2019-05-12T12:38:46.460Z,7.97
2019-05-12T12:41:16.107Z,17.33
2019-05-12T12:43:45.676Z,7.80
2019-05-12T12:46:24.391Z,4.53
2019-05-12T12:49:00.453Z,5.63
2019-05-12T12:51:26.750Z,3.83
2019-05-12T12:53:56.615Z,11.27
2019-05-12T12:56:30.038Z,7.20
2019-05-12T12:59:04.104Z,6.70
2019-05-12T13:01:33.539Z,4.17
2019-05-12T13:04:06.382Z,5.63
2019-05-12T13:06:35.969Z,4.60
2019-05-12T13:09:18.302Z,4.33
2019-05-12T13:11:40.558Z,4.67
2019-05-12T13:14:10.559Z,5.67
2019-05-12T13:16:40.475Z,7.43
2019-05-12T13:19:15.083Z,5.33
2019-05-12T13:22:00.392Z,5.70
2019-05-12T13:24:29.994Z,4.03
2019-05-12T13:26:59.615Z,4.30
2019-05-12T13:29:38.625Z,3.27
2019-05-12T13:32:00.166Z,3.10
2019-05-12T13:34:36.602Z,5.43
2019-05-12T13:37:03.326Z,6.70
2019-05-12T13:39:33.563Z,4.43
2019-05-12T13:42:03.267Z,2.97
2019-05-12T13:44:36.409Z,3.57
2019-05-12T13:47:03.913Z,6.07
2019-05-12T13:49:38.426Z,4.23
2019-05-12T13:52:04.532Z,3.07
2019-05-12T13:54:34.092Z,3.10
2019-05-12T13:57:11.572Z,2.97
2019-05-12T13:59:34.783Z,2.97
2019-05-12T14:02:04.320Z,3.53
2019-05-12T14:04:33.763Z,4.03
2019-05-12T14:07:03.923Z,4.80
2019-05-12T14:09:34.305Z,2.97
2019-05-12T14:12:04.407Z,4.10
2019-05-12T14:14:35.860Z,3.23
2019-05-12T14:17:05.432Z,3.77
2019-05-12T14:19:35.571Z,7.33
2019-05-12T14:22:12.912Z,3.13
2019-05-12T14:24:42.152Z,5.80
2019-05-12T14:27:10.356Z,2.30
2019-05-12T14:29:40.155Z,5.30
2019-05-12T14:32:12.153Z,5.57
2019-05-12T14:34:42.891Z,4.83
2019-05-12T14:37:13.746Z,1.13
2019-05-12T14:39:46.251Z,2.33
2019-05-12T14:42:15.622Z,3.73
2019-05-12T14:44:49.640Z,4.40
2019-05-12T14:49:54.258Z,6.73
2019-05-12T14:52:24.238Z,1.47
2019-05-12T14:54:54.257Z,1.50
2019-05-12T14:57:29.302Z,4.57
2019-05-12T14:59:57.648Z,1.10
2019-05-12T15:02:29.424Z,1.83
2019-05-12T15:05:05.194Z,3.40
2019-05-12T15:07:30.809Z,2.60
2019-05-12T15:10:03.603Z,5.40
2019-05-12T15:12:33.501Z,3.07
2019-05-12T15:15:03.812Z,1.53
2019-05-12T15:17:33.852Z,6.93
2019-05-12T15:20:06.641Z,4.03
2019-05-12T15:22:34.912Z,2.33
2019-05-12T15:25:05.518Z,1.63
2019-05-12T15:27:44.236Z,1.87
2019-05-12T15:30:19.079Z,7.50
2019-05-12T15:32:38.829Z,1.50
2019-05-12T15:35:08.794Z,1.60
2019-05-12T15:37:39.114Z,1.33
2019-05-12T15:40:10.572Z,3.30
2019-05-12T15:42:45.278Z,1.43
2019-05-12T15:45:16.766Z,1.77
2019-05-12T15:47:46.952Z,2.63
2019-05-12T15:50:16.873Z,1.57
2019-05-12T15:52:46.516Z,1.23
2019-05-12T15:55:18.416Z,1.57
2019-05-12T15:57:47.696Z,3.67
2019-05-12T16:00:17.363Z,1.93
2019-05-12T16:02:47.049Z,1.10
2019-05-12T16:05:20.214Z,2.87
2019-05-12T16:07:48.405Z,1.43
2019-05-12T16:10:18.330Z,1.10
2019-05-12T16:12:48.056Z,2.33
2019-05-12T16:15:19.404Z,1.20
2019-05-12T16:17:49.220Z,1.67
2019-05-12T16:20:19.027Z,2.13
2019-05-12T16:22:53.227Z,3.60
2019-05-12T16:25:28.999Z,1.97
2019-05-12T16:27:54.305Z,3.23
2019-05-12T16:30:25.940Z,10.37
2019-05-12T16:32:55.295Z,11.90
2019-05-12T16:35:31.420Z,1.10
2019-05-12T16:37:57.624Z,4.50
2019-05-12T16:40:27.212Z,3.17
2019-05-12T16:43:00.278Z,2.73
2019-05-12T16:45:29.944Z,2.13
2019-05-12T16:48:05.608Z,3.67
2019-05-12T16:50:30.964Z,2.40
2019-05-12T16:53:00.570Z,3.43
2019-05-12T16:55:30.235Z,1.90
2019-05-12T16:57:59.884Z,1.63
2019-05-12T17:00:31.109Z,1.23
2019-05-12T17:03:05.830Z,4.67
2019-05-12T17:05:35.534Z,1.50
2019-05-12T17:08:05.421Z,2.03
2019-05-12T17:10:35.057Z,3.17
2019-05-12T17:13:07.434Z,1.43
2019-05-12T17:15:36.043Z,1.00
2019-05-12T17:18:05.847Z,1.20
2019-05-12T17:20:35.513Z,1.30
2019-05-12T17:23:05.260Z,1.53
2019-05-12T17:25:34.946Z,1.07
2019-05-12T17:28:15.555Z,5.97
2019-05-12T17:30:45.234Z,3.07
2019-05-12T17:33:22.278Z,1.93
2019-05-12T17:35:46.300Z,1.90
2019-05-12T17:38:19.758Z,1.93
2019-05-12T17:40:50.317Z,1.60
2019-05-12T17:43:18.543Z,1.30
2019-05-12T17:45:50.464Z,1.20
2019-05-12T17:48:23.425Z,4.40
2019-05-12T17:50:53.940Z,1.67
2019-05-12T17:53:30.431Z,1.47
2019-05-12T17:55:58.197Z,1.70
2019-05-12T17:58:29.797Z,3.10
2019-05-12T18:00:59.388Z,1.17
2019-05-12T18:03:29.253Z,1.40
2019-05-12T18:05:58.919Z,2.80
2019-05-12T18:08:33.592Z,1.37
2019-05-12T18:10:59.980Z,0.97
2019-05-12T18:13:29.550Z,4.83
2019-05-12T18:15:59.266Z,1.40
2019-05-12T18:18:33.211Z,1.30
2019-05-12T18:21:00.349Z,3.87
2019-05-12T18:23:30.468Z,8.63
2019-05-12T18:26:05.479Z,1.37
2019-05-12T18:28:33.464Z,3.00
2019-05-12T18:31:04.451Z,1.50
2019-05-12T18:33:42.902Z,3.00
2019-05-12T18:36:08.659Z,5.33
2019-05-12T18:38:38.268Z,3.70
2019-05-12T18:41:13.775Z,1.80
2019-05-12T18:43:43.532Z,2.53
2019-05-12T18:46:14.046Z,1.23
2019-05-12T18:48:43.973Z,1.03
2019-05-12T18:51:16.917Z,2.03
2019-05-12T18:53:45.281Z,1.97
2019-05-12T18:56:19.761Z,1.90
2019-05-12T18:58:46.187Z,1.37
2019-05-12T19:01:15.937Z,2.50
2019-05-12T19:03:50.805Z,2.73
2019-05-12T19:06:16.854Z,1.80
2019-05-12T19:08:46.601Z,2.60
2019-05-12T19:11:22.417Z,5.03
2019-05-12T19:13:51.617Z,2.33
2019-05-12T19:16:18.916Z,1.83
2019-05-12T19:18:48.572Z,1.37
2019-05-12T19:21:20.114Z,2.80
2019-05-12T19:23:49.866Z,1.20
2019-05-12T19:26:19.953Z,1.83
2019-05-12T19:29:24.355Z,2.10
2019-05-12T19:31:57.799Z,2.30
2019-05-12T19:34:26.343Z,3.50
2019-05-12T19:36:59.041Z,1.40
2019-05-12T19:39:28.942Z,2.10
2019-05-12T19:41:58.697Z,3.40
2019-05-12T19:44:31.636Z,1.67
2019-05-12T19:47:01.532Z,2.10
2019-05-12T19:49:46.166Z,1.70
2019-05-12T19:52:06.688Z,2.23
2019-05-12T19:54:37.025Z,2.40
2019-05-12T19:57:13.063Z,3.80
2019-05-12T19:59:44.042Z,4.80
2019-05-12T20:02:17.443Z,2.30
2019-05-12T20:04:51.995Z,2.30
2019-05-12T20:07:23.357Z,4.00
2019-05-12T20:09:55.924Z,5.13
2019-05-12T20:12:25.218Z,1.63
2019-05-12T20:14:59.804Z,5.57
2019-05-12T20:17:29.974Z,3.87
2019-05-12T20:19:59.692Z,4.83
2019-05-12T20:22:29.488Z,3.13
2019-05-12T20:24:59.471Z,4.20
2019-05-12T20:27:29.509Z,2.57
2019-05-12T20:29:59.272Z,2.63
2019-05-12T20:32:28.917Z,1.87
2019-05-12T20:34:58.757Z,1.30
2019-05-12T20:37:28.278Z,1.83
2019-05-12T20:40:04.385Z,2.33
2019-05-12T20:42:33.681Z,2.20
2019-05-12T20:45:05.315Z,8.60
2019-05-12T20:47:38.980Z,8.80
2019-05-12T20:50:06.763Z,4.93
2019-05-12T20:52:39.357Z,4.50
2019-05-12T20:55:08.146Z,3.30
2019-05-12T20:57:56.907Z,10.57
2019-05-12T21:00:26.506Z,17.27
2019-05-12T21:02:55.793Z,9.80
2019-05-12T21:05:25.067Z,12.30
2019-05-12T21:08:10.999Z,24.57
2019-05-12T21:10:34.113Z,39.63
2019-05-12T21:13:03.926Z,22.50
2019-05-12T21:15:37.349Z,49.57
2019-05-12T21:18:07.223Z,38.87
2019-05-12T21:20:35.189Z,25.60
2019-05-12T21:23:05.606Z,41.97
2019-05-12T21:25:34.793Z,39.23
2019-05-12T21:28:07.680Z,14.03
2019-05-12T21:30:35.327Z,8.40
2019-05-12T21:33:05.009Z,8.83
2019-05-12T21:35:40.893Z,22.53
2019-05-12T21:38:05.560Z,6.77
2019-05-12T21:40:35.170Z,6.33
2019-05-12T21:43:04.593Z,12.87
2019-05-12T21:45:34.181Z,13.90
2019-05-12T21:48:03.797Z,6.70
2019-05-12T21:50:38.214Z,3.87
2019-05-12T21:53:04.619Z,7.77
2019-05-12T21:55:35.899Z,2.60
2019-05-12T21:58:10.461Z,3.53
2019-05-12T22:00:39.950Z,2.00
2019-05-12T22:03:14.790Z,2.93
2019-05-12T22:05:52.189Z,3.27
2019-05-12T22:08:20.987Z,2.00
2019-05-12T22:10:43.929Z,2.00
2019-05-12T22:13:17.674Z,2.20
2019-05-12T22:15:51.388Z,2.20
2019-05-12T22:18:18.447Z,2.03
2019-05-12T22:20:52.383Z,1.10
2019-05-12T22:23:18.501Z,1.30
2019-05-12T22:25:49.214Z,1.00
2019-05-12T22:28:18.683Z,1.40
2019-05-12T22:30:49.637Z,1.47
2019-05-12T22:33:18.944Z,2.23
2019-05-12T22:36:01.880Z,1.40
2019-05-12T22:38:21.047Z,1.97
2019-05-12T22:40:55.849Z,2.77
2019-05-12T22:43:23.140Z,1.23
2019-05-12T22:45:54.482Z,1.23
2019-05-12T22:48:23.070Z,0.80
2019-05-12T22:50:54.763Z,1.07
2019-05-12T22:53:25.761Z,1.90
2019-05-12T22:55:54.119Z,1.00
2019-05-12T22:58:25.508Z,2.30
2019-05-12T23:01:00.695Z,1.37
2019-05-12T23:03:25.332Z,1.40
2019-05-12T23:05:59.825Z,1.37
2019-05-12T23:08:33.428Z,2.50
2019-05-12T23:11:03.815Z,1.63
2019-05-12T23:13:40.856Z,1.00
2019-05-12T23:16:04.294Z,1.00
2019-05-12T23:18:33.846Z,2.60
2019-05-12T23:21:04.002Z,1.20
2019-05-12T23:23:34.081Z,1.10
2019-05-12T23:26:03.352Z,1.60
2019-05-12T23:28:33.794Z,1.27
2019-05-12T23:31:04.267Z,1.40
2019-05-12T23:33:36.800Z,5.80
2019-05-12T23:36:09.502Z,2.40
2019-05-12T23:38:35.706Z,1.53
2019-05-12T23:41:04.938Z,2.90
2019-05-12T23:43:34.219Z,7.20
2019-05-12T23:46:03.479Z,1.20
2019-05-12T23:48:33.514Z,1.53
2019-05-12T23:51:03.789Z,3.13
2019-05-12T23:53:33.872Z,1.93
2019-05-12T23:56:03.852Z,1.17
2019-05-12T23:58:33.278Z,1.13
